createdAt,value
2023-06-07T00:01:58.674Z,5.40
2023-06-07T00:04:46.288Z,5.15
2023-06-07T00:07:31.699Z,5.53
2023-06-07T00:10:16.957Z,4.97
2023-06-07T00:13:02.597Z,5.25
2023-06-07T00:15:48.320Z,5.82
2023-06-07T00:18:33.895Z,5.32
2023-06-07T00:21:21.138Z,5.30
2023-06-07T00:24:06.859Z,5.72
2023-06-07T00:26:52.264Z,5.75
2023-06-07T00:29:37.714Z,5.57
2023-06-07T00:32:23.976Z,5.50
2023-06-07T00:35:12.616Z,5.38
2023-06-07T00:37:58.140Z,5.80
2023-06-07T00:40:43.452Z,5.07
2023-06-07T00:43:28.690Z,5.57
2023-06-07T00:46:15.309Z,5.85
2023-06-07T00:49:01.571Z,5.65
2023-06-07T00:51:48.380Z,5.82
2023-06-07T00:54:33.918Z,5.65
2023-06-07T00:57:20.130Z,5.35
2023-06-07T01:00:08.089Z,6.10
2023-06-07T01:02:54.284Z,6.13
2023-06-07T01:05:39.814Z,5.60
2023-06-07T01:08:26.886Z,6.15
2023-06-07T01:11:14.087Z,6.18
2023-06-07T01:13:59.629Z,6.40
2023-06-07T01:16:49.715Z,6.13
2023-06-07T01:19:38.045Z,6.35
2023-06-07T01:22:33.889Z,6.68
2023-06-07T01:25:19.568Z,6.78
2023-06-07T01:28:07.017Z,6.80
2023-06-07T01:30:55.332Z,6.90
2023-06-07T01:33:43.656Z,6.80
2023-06-07T01:36:31.782Z,6.80
2023-06-07T01:39:20.693Z,6.80
2023-06-07T01:42:10.059Z,7.63
2023-06-07T01:44:58.194Z,7.32
2023-06-07T01:47:44.652Z,7.10
2023-06-07T01:50:30.531Z,6.75
2023-06-07T01:53:16.251Z,6.60
2023-06-07T01:56:36.978Z,7.78
2023-06-07T01:59:50.944Z,6.78
2023-06-07T02:03:02.722Z,6.80
2023-06-07T02:06:01.021Z,7.00
2023-06-07T02:08:56.059Z,6.80
2023-06-07T02:11:43.262Z,6.82
2023-06-07T02:14:29.553Z,6.88
2023-06-07T02:17:14.906Z,6.90
2023-06-07T02:20:00.648Z,7.53
2023-06-07T02:22:46.297Z,6.60
2023-06-07T02:25:35.370Z,7.03
2023-06-07T02:28:20.846Z,6.70
2023-06-07T02:31:06.455Z,7.03
2023-06-07T02:33:51.926Z,6.80
2023-06-07T02:36:41.399Z,6.93
2023-06-07T02:39:26.950Z,7.07
2023-06-07T02:42:12.101Z,6.80
2023-06-07T02:44:57.431Z,7.20
2023-06-07T02:47:44.676Z,6.65
2023-06-07T02:50:30.197Z,6.78
2023-06-07T02:53:16.199Z,6.80
2023-06-07T02:56:01.680Z,6.72
2023-06-07T02:58:46.833Z,6.90
2023-06-07T03:01:34.242Z,6.28
2023-06-07T03:04:21.180Z,6.90
2023-06-07T03:07:08.878Z,6.53
2023-06-07T03:09:58.418Z,6.95
2023-06-07T03:12:44.042Z,6.55
2023-06-07T03:15:29.266Z,6.50
2023-06-07T03:18:16.679Z,6.50
2023-06-07T03:21:07.605Z,6.22
2023-06-07T03:23:54.379Z,6.68
2023-06-07T03:26:41.173Z,6.47
2023-06-07T03:29:28.074Z,7.10
2023-06-07T03:32:14.157Z,6.30
2023-06-07T03:35:00.197Z,6.63
2023-06-07T03:37:45.726Z,6.63
2023-06-07T03:40:30.964Z,6.53
2023-06-07T03:43:18.756Z,6.72
2023-06-07T03:46:04.171Z,6.50
2023-06-07T03:48:52.817Z,6.53
2023-06-07T03:51:39.950Z,6.40
2023-06-07T03:54:26.498Z,6.07
2023-06-07T03:57:12.214Z,6.35
2023-06-07T04:00:01.701Z,6.18
2023-06-07T04:02:49.427Z,6.38
2023-06-07T04:05:39.686Z,6.85
2023-06-07T04:08:25.495Z,6.10
2023-06-07T04:11:10.722Z,6.55
2023-06-07T04:13:56.230Z,6.85
2023-06-07T04:16:45.207Z,7.05
2023-06-07T04:19:30.753Z,5.82
2023-06-07T04:22:17.695Z,6.05
2023-06-07T04:25:04.630Z,6.60
2023-06-07T04:27:50.175Z,6.00
2023-06-07T04:30:35.699Z,6.28
2023-06-07T04:33:22.386Z,6.57
2023-06-07T04:36:09.957Z,6.25
2023-06-07T04:39:02.063Z,6.15
2023-06-07T04:41:54.222Z,6.38
2023-06-07T04:44:40.898Z,6.00
2023-06-07T04:47:33.558Z,6.38
2023-06-07T04:50:22.035Z,6.18
2023-06-07T04:53:07.583Z,6.22
2023-06-07T04:55:53.079Z,6.70
2023-06-07T04:58:41.769Z,6.13
2023-06-07T05:01:31.204Z,6.63
2023-06-07T05:04:17.957Z,6.43
2023-06-07T05:07:10.035Z,5.97
2023-06-07T05:09:58.812Z,6.63
2023-06-07T05:12:44.784Z,6.65
2023-06-07T05:15:32.567Z,6.72
2023-06-07T05:18:19.927Z,6.57
2023-06-07T05:21:05.904Z,6.32
2023-06-07T05:23:51.203Z,7.22
2023-06-07T05:26:36.446Z,6.70
2023-06-07T05:29:22.742Z,6.40
2023-06-07T05:32:09.986Z,6.68
2023-06-07T05:34:58.879Z,6.55
2023-06-07T05:37:44.340Z,6.60
2023-06-07T05:40:29.724Z,6.68
2023-06-07T05:43:15.083Z,6.28
2023-06-07T05:46:01.680Z,6.32
2023-06-07T05:48:47.538Z,6.57
2023-06-07T05:51:37.765Z,5.82
2023-06-07T05:54:22.930Z,6.28
2023-06-07T05:57:08.554Z,5.78
2023-06-07T05:59:53.811Z,6.70
2023-06-07T06:02:44.168Z,6.15
2023-06-07T06:05:30.032Z,5.72
2023-06-07T06:08:16.972Z,6.13
2023-06-07T06:11:02.186Z,6.20
2023-06-07T06:13:49.655Z,6.15
2023-06-07T06:16:35.428Z,6.47
2023-06-07T06:19:21.502Z,6.93
2023-06-07T06:22:06.821Z,6.45
2023-06-07T06:24:52.007Z,6.68
2023-06-07T06:27:37.473Z,5.90
2023-06-07T06:30:24.706Z,6.20
2023-06-07T06:33:11.319Z,5.97
2023-06-07T06:35:56.702Z,6.28
2023-06-07T06:38:42.008Z,5.53
2023-06-07T06:41:27.178Z,6.07
2023-06-07T06:44:12.417Z,5.97
2023-06-07T06:46:57.680Z,6.50
2023-06-07T06:49:43.034Z,6.22
2023-06-07T06:52:28.347Z,6.22
2023-06-07T06:55:13.532Z,5.70
2023-06-07T06:57:58.941Z,6.38
2023-06-07T07:00:44.073Z,6.30
2023-06-07T07:03:29.866Z,6.05
2023-06-07T07:06:15.112Z,5.60
2023-06-07T07:09:00.850Z,5.90
2023-06-07T07:11:46.725Z,5.47
2023-06-07T07:14:31.763Z,5.70
2023-06-07T07:17:18.138Z,6.25
2023-06-07T07:20:07.247Z,5.18
2023-06-07T07:22:52.882Z,5.53
2023-06-07T07:25:38.166Z,5.47
2023-06-07T07:28:23.278Z,4.88
2023-06-07T07:31:08.991Z,5.50
2023-06-07T07:33:54.393Z,5.57
2023-06-07T07:36:40.178Z,5.25
2023-06-07T07:39:26.879Z,5.07
2023-06-07T07:42:12.267Z,6.68
2023-06-07T07:44:57.448Z,5.30
2023-06-07T07:47:45.641Z,5.32
2023-06-07T07:50:31.253Z,5.10
2023-06-07T07:53:16.530Z,5.07
2023-06-07T07:56:02.727Z,5.00
2023-06-07T07:58:51.890Z,5.60
2023-06-07T08:01:37.476Z,5.72
2023-06-07T08:04:22.628Z,5.00
2023-06-07T08:07:07.826Z,5.90
2023-06-07T08:09:53.073Z,5.20
2023-06-07T08:12:38.336Z,5.43
2023-06-07T08:15:23.721Z,4.93
2023-06-07T08:18:09.084Z,5.57
2023-06-07T08:20:55.058Z,5.65
2023-06-07T08:23:40.155Z,5.65
2023-06-07T08:26:25.530Z,5.90
2023-06-07T08:29:10.976Z,5.32
2023-06-07T08:31:57.966Z,6.18
2023-06-07T08:34:43.585Z,5.18
2023-06-07T08:37:29.178Z,4.90
2023-06-07T08:40:19.220Z,4.80
2023-06-07T08:43:04.787Z,5.20
2023-06-07T08:45:52.031Z,5.55
2023-06-07T08:48:40.981Z,4.93
2023-06-07T08:51:29.754Z,4.75
2023-06-07T08:54:21.823Z,4.97
2023-06-07T08:57:08.746Z,4.75
2023-06-07T08:59:55.526Z,4.80
2023-06-07T09:02:41.397Z,5.10
2023-06-07T09:05:26.840Z,4.55
2023-06-07T09:08:12.156Z,4.15
2023-06-07T09:10:57.550Z,4.10
2023-06-07T09:13:43.542Z,4.63
2023-06-07T09:16:29.446Z,4.75
2023-06-07T09:19:30.892Z,4.72
2023-06-07T09:22:23.479Z,4.32
2023-06-07T09:25:08.881Z,4.10
2023-06-07T09:27:56.053Z,4.65
2023-06-07T09:31:01.148Z,4.53
2023-06-07T09:33:47.524Z,4.50
2023-06-07T09:36:32.902Z,4.22
2023-06-07T09:39:27.396Z,4.93
2023-06-07T09:42:17.888Z,5.80
2023-06-07T09:45:15.561Z,4.82
2023-06-07T09:48:06.090Z,4.35
2023-06-07T09:50:59.292Z,4.80
2023-06-07T09:54:02.337Z,4.75
2023-06-07T09:56:47.802Z,4.75
2023-06-07T09:59:33.060Z,4.85
2023-06-07T10:02:26.729Z,4.53
2023-06-07T10:05:16.923Z,5.22
2023-06-07T10:08:04.414Z,4.90
2023-06-07T10:10:53.549Z,4.68
2023-06-07T10:13:40.725Z,4.90
2023-06-07T10:16:30.407Z,5.30
2023-06-07T10:19:22.040Z,5.75
2023-06-07T10:22:16.268Z,5.90
2023-06-07T10:25:13.241Z,5.38
2023-06-07T10:28:22.576Z,6.22
2023-06-07T10:31:13.572Z,6.38
2023-06-07T10:34:00.997Z,6.10
2023-06-07T10:36:46.415Z,6.38
2023-06-07T10:39:31.426Z,5.60
2023-06-07T10:42:18.362Z,5.68
2023-06-07T10:45:05.886Z,5.50
2023-06-07T10:47:51.736Z,5.47
2023-06-07T10:50:47.950Z,5.57
2023-06-07T10:53:57.269Z,5.70
2023-06-07T10:56:43.267Z,5.30
2023-06-07T10:59:28.548Z,6.10
2023-06-07T11:02:21.452Z,5.80
2023-06-07T11:05:07.546Z,6.47
2023-06-07T11:08:32.046Z,5.57
2023-06-07T11:11:42.327Z,5.87
2023-06-07T11:14:28.047Z,6.00
2023-06-07T11:17:55.869Z,5.70
2023-06-07T11:20:43.004Z,5.55
2023-06-07T11:23:29.899Z,5.20
2023-06-07T11:26:15.952Z,5.65
2023-06-07T11:29:01.905Z,5.30
2023-06-07T11:31:49.344Z,6.05
2023-06-07T11:34:34.823Z,5.57
2023-06-07T11:37:20.210Z,5.30
2023-06-07T11:40:08.946Z,5.80
2023-06-07T11:42:54.360Z,5.80
2023-06-07T11:45:44.412Z,5.70
2023-06-07T11:48:31.914Z,5.53
2023-06-07T11:51:18.301Z,6.30
2023-06-07T11:54:04.062Z,6.20
2023-06-07T11:56:49.250Z,5.47
2023-06-07T11:59:34.796Z,5.53
2023-06-07T12:02:20.739Z,5.63
2023-06-07T12:05:07.521Z,5.25
2023-06-07T12:07:58.752Z,6.07
2023-06-07T12:10:52.849Z,5.28
2023-06-07T12:16:25.021Z,5.57
2023-06-07T12:19:10.686Z,5.20
2023-06-07T12:22:05.215Z,5.03
2023-06-07T12:24:50.357Z,5.35
2023-06-07T12:27:38.066Z,4.65
2023-06-07T12:30:23.250Z,5.25
2023-06-07T12:33:18.835Z,4.85
2023-06-07T12:36:06.685Z,4.75
2023-06-07T12:38:54.122Z,4.38
2023-06-07T12:41:40.334Z,4.47
2023-06-07T12:44:26.034Z,4.90
2023-06-07T12:47:12.283Z,4.50
2023-06-07T12:49:59.339Z,4.47
2023-06-07T12:52:44.811Z,4.32
2023-06-07T12:55:30.087Z,4.75
2023-06-07T12:58:15.401Z,4.95
2023-06-07T13:01:03.862Z,4.80
2023-06-07T13:03:51.001Z,4.93
2023-06-07T13:06:37.402Z,6.70
2023-06-07T13:09:23.044Z,4.13
2023-06-07T13:12:10.188Z,4.53
2023-06-07T13:14:55.558Z,4.30
2023-06-07T13:17:41.392Z,4.20
2023-06-07T13:20:26.936Z,4.38
2023-06-07T13:23:12.231Z,4.32
2023-06-07T13:25:57.540Z,4.55
2023-06-07T13:28:45.280Z,4.55
2023-06-07T13:31:30.832Z,4.15
2023-06-07T13:34:16.299Z,3.95
2023-06-07T13:37:01.634Z,5.22
2023-06-07T13:39:47.065Z,4.53
2023-06-07T13:42:32.324Z,5.45
2023-06-07T13:45:18.227Z,5.28
2023-06-07T13:48:03.849Z,5.47
2023-06-07T13:50:52.398Z,5.00
2023-06-07T13:53:38.219Z,5.57
2023-06-07T13:56:23.692Z,5.28
2023-06-07T13:59:09.274Z,4.72
2023-06-07T14:01:55.499Z,4.35
2023-06-07T14:04:41.040Z,3.70
2023-06-07T14:07:27.031Z,4.47
2023-06-07T14:10:12.958Z,4.18
2023-06-07T14:12:58.218Z,4.05
2023-06-07T14:15:43.570Z,4.13
2023-06-07T14:18:29.001Z,4.13
2023-06-07T14:21:15.926Z,4.28
2023-06-07T14:24:01.665Z,4.38
2023-06-07T14:26:47.351Z,3.90
2023-06-07T14:29:32.659Z,4.18
2023-06-07T14:32:17.886Z,4.10
2023-06-07T14:35:03.671Z,3.95
2023-06-07T14:37:49.511Z,3.90
2023-06-07T14:40:34.717Z,4.28
2023-06-07T14:43:19.771Z,4.82
2023-06-07T14:46:07.530Z,4.45
2023-06-07T14:49:01.107Z,4.97
2023-06-07T14:51:56.789Z,4.43
2023-06-07T14:54:50.760Z,4.10
2023-06-07T14:57:36.427Z,4.82
2023-06-07T15:00:22.603Z,4.22
2023-06-07T15:03:08.775Z,4.30
2023-06-07T15:05:53.886Z,4.43
2023-06-07T15:08:39.367Z,4.32
2023-06-07T15:11:24.652Z,4.38
2023-06-07T15:14:11.076Z,4.72
2023-06-07T15:16:56.472Z,4.00
2023-06-07T15:19:41.981Z,4.68
2023-06-07T15:22:27.751Z,4.47
2023-06-07T15:25:13.092Z,4.50
2023-06-07T15:27:58.517Z,4.35
2023-06-07T15:30:43.826Z,4.15
2023-06-07T15:33:29.153Z,4.55
2023-06-07T15:36:14.518Z,4.57
2023-06-07T15:38:59.619Z,4.53
2023-06-07T15:42:00.555Z,4.53
2023-06-07T15:44:46.953Z,4.47
2023-06-07T15:47:32.256Z,4.18
2023-06-07T15:50:17.527Z,4.95
2023-06-07T15:53:05.035Z,4.32
2023-06-07T15:55:51.406Z,3.60
2023-06-07T15:58:37.600Z,4.07
2023-06-07T16:01:26.354Z,3.80
2023-06-07T16:04:11.704Z,4.05
2023-06-07T16:06:57.059Z,3.92
2023-06-07T16:09:42.384Z,3.83
2023-06-07T16:12:27.669Z,3.90
2023-06-07T16:15:13.081Z,3.30
2023-06-07T16:17:58.552Z,3.55
2023-06-07T16:20:44.145Z,3.75
2023-06-07T16:23:29.644Z,3.20
2023-06-07T16:26:15.491Z,3.45
2023-06-07T16:29:00.929Z,3.25
2023-06-07T16:31:46.239Z,3.08
2023-06-07T16:34:31.699Z,3.45
2023-06-07T16:37:16.934Z,3.10
2023-06-07T16:40:02.099Z,3.15
2023-06-07T16:42:49.702Z,3.42
2023-06-07T16:45:35.302Z,3.38
2023-06-07T16:48:20.733Z,3.03
2023-06-07T16:51:05.940Z,3.20
2023-06-07T16:53:51.321Z,3.28
2023-06-07T16:56:37.612Z,3.30
2023-06-07T16:59:23.248Z,3.55
2023-06-07T17:02:09.282Z,2.88
2023-06-07T17:04:54.674Z,3.10
2023-06-07T17:07:40.727Z,3.53
2023-06-07T17:10:37.338Z,3.10
2023-06-07T17:13:22.554Z,2.78
2023-06-07T17:16:07.713Z,3.00
2023-06-07T17:18:53.264Z,2.75
2023-06-07T17:21:38.686Z,2.85
2023-06-07T17:24:23.877Z,2.90
2023-06-07T17:27:09.779Z,3.20
2023-06-07T17:29:55.347Z,2.60
2023-06-07T17:32:41.954Z,3.00
2023-06-07T17:35:27.315Z,3.00
2023-06-07T17:38:12.814Z,3.20
2023-06-07T17:40:57.862Z,3.13
2023-06-07T17:43:43.016Z,3.13
2023-06-07T17:46:28.223Z,2.97
2023-06-07T17:49:14.650Z,3.10
2023-06-07T17:52:06.352Z,2.95
2023-06-07T17:54:59.808Z,2.78
2023-06-07T17:57:49.378Z,3.17
2023-06-07T18:00:34.584Z,3.00
2023-06-07T18:03:20.393Z,2.95
2023-06-07T18:06:05.815Z,3.13
2023-06-07T18:08:52.281Z,3.10
2023-06-07T18:11:37.866Z,2.95
2023-06-07T18:14:23.149Z,2.97
2023-06-07T18:17:09.877Z,3.30
2023-06-07T18:19:55.139Z,3.20
2023-06-07T18:22:41.194Z,3.08
2023-06-07T18:25:26.845Z,3.00
2023-06-07T18:28:11.957Z,3.00
2023-06-07T18:30:59.047Z,3.20
2023-06-07T18:33:44.314Z,3.10
2023-06-07T18:36:29.780Z,2.90
2023-06-07T18:39:15.069Z,3.17
2023-06-07T18:42:00.694Z,3.03
2023-06-07T18:44:46.314Z,2.90
2023-06-07T18:47:31.657Z,2.70
2023-06-07T18:50:17.810Z,2.90
2023-06-07T18:53:04.031Z,3.20
2023-06-07T18:55:50.733Z,3.10
2023-06-07T18:58:35.878Z,3.38
2023-06-07T19:01:21.256Z,3.30
2023-06-07T19:04:06.560Z,3.00
2023-06-07T19:06:55.376Z,2.72
2023-06-07T19:09:40.765Z,2.75
2023-06-07T19:12:28.863Z,2.72
2023-06-07T19:15:15.548Z,3.13
2023-06-07T19:18:01.121Z,3.47
2023-06-07T19:20:46.554Z,3.22
2023-06-07T19:23:32.698Z,3.30
2023-06-07T19:26:17.963Z,3.20
2023-06-07T19:29:04.076Z,3.47
2023-06-07T19:31:49.303Z,3.35
2023-06-07T19:34:38.438Z,3.28
2023-06-07T19:37:24.014Z,3.17
2023-06-07T19:40:15.455Z,3.28
2023-06-07T19:43:02.834Z,3.38
2023-06-07T19:45:48.332Z,3.28
2023-06-07T19:48:34.535Z,3.20
2023-06-07T19:51:22.110Z,3.28
2023-06-07T19:54:11.341Z,3.67
2023-06-07T19:56:56.625Z,3.17
2023-06-07T19:59:42.324Z,3.22
2023-06-07T20:02:28.580Z,3.22
2023-06-07T20:05:15.977Z,3.40
2023-06-07T20:08:01.596Z,3.45
2023-06-07T20:10:46.815Z,3.20
2023-06-07T20:13:32.113Z,3.22
2023-06-07T20:16:18.950Z,3.72
2023-06-07T20:19:04.804Z,3.47
2023-06-07T20:21:50.206Z,3.95
2023-06-07T20:24:35.448Z,4.05
2023-06-07T20:27:20.686Z,3.22
2023-06-07T20:30:07.655Z,3.28
2023-06-07T20:32:53.084Z,3.45
2023-06-07T20:35:38.308Z,3.50
2023-06-07T20:38:23.701Z,3.17
2023-06-07T20:41:08.889Z,3.33
2023-06-07T20:43:54.380Z,4.20
2023-06-07T20:46:39.598Z,3.60
2023-06-07T20:49:24.924Z,3.22
2023-06-07T20:52:10.309Z,3.70
2023-06-07T20:54:55.697Z,3.70
2023-06-07T20:57:41.191Z,3.50
2023-06-07T21:00:27.113Z,3.58
2023-06-07T21:03:12.757Z,4.00
2023-06-07T21:05:57.997Z,3.92
2023-06-07T21:08:43.193Z,3.72
2023-06-07T21:11:28.448Z,3.95
2023-06-07T21:14:14.526Z,3.72
2023-06-07T21:16:59.989Z,3.63
2023-06-07T21:19:45.166Z,3.67
2023-06-07T21:22:30.802Z,4.20
2023-06-07T21:25:16.334Z,4.07
2023-06-07T21:28:02.575Z,3.60
2023-06-07T21:30:47.875Z,3.70
2023-06-07T21:33:35.689Z,3.90
2023-06-07T21:36:21.399Z,3.97
2023-06-07T21:39:06.668Z,3.83
2023-06-07T21:41:52.598Z,4.03
2023-06-07T21:44:38.689Z,4.57
2023-06-07T21:47:24.192Z,3.63
2023-06-07T21:50:10.757Z,4.35
2023-06-07T21:52:56.555Z,4.00
2023-06-07T21:55:44.116Z,3.97
2023-06-07T21:58:29.714Z,4.28
2023-06-07T22:01:15.103Z,3.90
2023-06-07T22:04:00.456Z,4.03
2023-06-07T22:06:45.849Z,4.03
2023-06-07T22:09:31.135Z,3.97
2023-06-07T22:12:20.042Z,4.28
2023-06-07T22:15:05.955Z,4.30
2023-06-07T22:17:55.406Z,4.18
2023-06-07T22:20:41.277Z,3.90
2023-06-07T22:23:28.234Z,4.07
2023-06-07T22:26:16.187Z,3.83
2023-06-07T22:29:02.979Z,4.30
2023-06-07T22:31:49.266Z,4.38
2023-06-07T22:34:35.930Z,3.92
2023-06-07T22:37:22.325Z,4.38
2023-06-07T22:40:10.598Z,4.50
2023-06-07T22:42:56.132Z,4.70
2023-06-07T22:45:41.380Z,4.78
2023-06-07T22:48:29.864Z,4.63
2023-06-07T22:51:18.999Z,4.45
2023-06-07T22:54:04.615Z,4.40
2023-06-07T22:56:49.986Z,4.53
2023-06-07T22:59:35.207Z,4.47
2023-06-07T23:02:20.940Z,4.75
2023-06-07T23:05:07.195Z,5.05
2023-06-07T23:07:52.512Z,4.35
2023-06-07T23:10:38.068Z,4.75
2023-06-07T23:13:23.687Z,4.40
2023-06-07T23:16:09.179Z,4.75
2023-06-07T23:18:54.545Z,5.20
2023-06-07T23:21:45.526Z,5.40
2023-06-07T23:24:31.033Z,4.78
2023-06-07T23:27:16.399Z,5.25
2023-06-07T23:30:01.549Z,5.00
2023-06-07T23:32:46.697Z,5.50
2023-06-07T23:35:32.219Z,5.20
2023-06-07T23:38:18.295Z,5.10
2023-06-07T23:41:03.721Z,5.32
2023-06-07T23:43:49.081Z,5.50
2023-06-07T23:46:34.290Z,5.10
2023-06-07T23:49:20.595Z,5.28
2023-06-07T23:52:06.399Z,5.57
2023-06-07T23:54:52.022Z,4.78
2023-06-07T23:57:37.416Z,5.75
